createdAt,value
2023-09-17T00:00:21.078Z,21.04
2023-09-17T00:02:47.879Z,20.97
2023-09-17T00:05:14.663Z,20.94
2023-09-17T00:07:42.095Z,20.88
2023-09-17T00:10:09.165Z,20.87
2023-09-17T00:12:35.985Z,20.84
2023-09-17T00:15:04.592Z,20.84
2023-09-17T00:17:31.592Z,20.82
2023-09-17T00:19:58.539Z,20.81
2023-09-17T00:22:26.039Z,20.80
2023-09-17T00:24:52.879Z,20.76
2023-09-17T00:27:19.596Z,20.75
2023-09-17T00:29:46.199Z,20.69
2023-09-17T00:32:12.777Z,20.65
2023-09-17T00:34:39.598Z,20.60
2023-09-17T00:37:06.247Z,20.55
2023-09-17T00:39:32.863Z,20.51
2023-09-17T00:41:59.828Z,20.47
2023-09-17T00:44:26.625Z,20.42
2023-09-17T00:46:53.491Z,20.38
2023-09-17T00:49:20.849Z,20.34
2023-09-17T00:51:47.837Z,20.30
2023-09-17T00:54:15.241Z,20.24
2023-09-17T00:56:42.051Z,20.21
2023-09-17T00:59:09.140Z,20.20
2023-09-17T01:01:36.898Z,20.15
2023-09-17T01:04:04.477Z,20.12
2023-09-17T01:06:31.629Z,20.09
2023-09-17T01:08:59.425Z,20.06
2023-09-17T01:11:26.944Z,20.01
2023-09-17T01:14:00.117Z,19.99
2023-09-17T01:16:28.070Z,19.94
2023-09-17T01:18:55.366Z,19.90
2023-09-17T01:21:37.156Z,19.82
2023-09-17T01:24:28.009Z,19.78
2023-09-17T01:27:04.891Z,19.75
2023-09-17T01:29:39.266Z,19.72
2023-09-17T01:32:07.136Z,19.69
2023-09-17T01:34:39.039Z,19.66
2023-09-17T01:37:19.804Z,19.56
2023-09-17T01:39:54.868Z,19.56
2023-09-17T01:42:23.513Z,19.54
2023-09-17T01:44:51.282Z,19.50
2023-09-17T01:47:20.662Z,19.46
2023-09-17T01:49:47.816Z,19.42
2023-09-17T01:52:16.124Z,19.39
2023-09-17T01:54:42.790Z,19.37
2023-09-17T01:57:09.515Z,19.32
2023-09-17T01:59:36.153Z,19.30
2023-09-17T02:02:03.699Z,19.27
2023-09-17T02:04:30.458Z,19.23
2023-09-17T02:06:57.067Z,19.20
2023-09-17T02:09:23.671Z,19.17
2023-09-17T02:11:51.331Z,19.17
2023-09-17T02:14:17.924Z,19.17
2023-09-17T02:16:44.929Z,19.18
2023-09-17T02:19:11.632Z,19.14
2023-09-17T02:21:38.215Z,19.12
2023-09-17T02:24:05.183Z,19.10
2023-09-17T02:26:31.843Z,19.07
2023-09-17T02:28:58.467Z,19.04
2023-09-17T02:31:25.435Z,18.98
2023-09-17T02:33:52.337Z,18.94
2023-09-17T02:36:19.376Z,18.92
2023-09-17T02:38:46.687Z,18.90
2023-09-17T02:41:13.691Z,18.90
2023-09-17T02:43:40.745Z,18.88
2023-09-17T02:46:07.667Z,18.87
2023-09-17T02:48:34.340Z,18.87
2023-09-17T02:51:01.120Z,18.86
2023-09-17T02:53:27.702Z,18.84
2023-09-17T02:55:55.954Z,18.82
2023-09-17T02:58:22.634Z,18.81
2023-09-17T03:00:49.208Z,18.80
2023-09-17T03:03:16.838Z,18.79
2023-09-17T03:05:49.602Z,18.77
2023-09-17T03:08:16.247Z,18.74
2023-09-17T03:10:43.919Z,18.73
2023-09-17T03:13:11.726Z,18.71
2023-09-17T03:15:38.414Z,18.68
2023-09-17T03:18:05.660Z,18.65
2023-09-17T03:20:34.906Z,18.63
2023-09-17T03:23:05.915Z,18.61
2023-09-17T03:25:33.278Z,18.56
2023-09-17T03:28:03.374Z,18.54
2023-09-17T03:30:29.994Z,18.49
2023-09-17T03:33:04.416Z,18.49
2023-09-17T03:35:32.169Z,18.48
2023-09-17T03:37:58.794Z,18.44
2023-09-17T03:40:26.050Z,18.42
2023-09-17T03:42:53.623Z,18.41
2023-09-17T03:45:20.316Z,18.41
2023-09-17T03:47:48.721Z,18.39
2023-09-17T03:50:20.770Z,18.40
2023-09-17T03:52:50.521Z,18.40
2023-09-17T03:55:17.554Z,18.39
2023-09-17T03:57:44.307Z,18.39
2023-09-17T04:00:14.517Z,18.37
2023-09-17T04:02:43.301Z,18.34
2023-09-17T04:05:15.711Z,18.32
2023-09-17T04:07:44.322Z,18.29
2023-09-17T04:10:13.387Z,18.27
2023-09-17T04:12:42.053Z,18.24
2023-09-17T04:15:14.662Z,18.24
2023-09-17T04:17:41.607Z,18.23
2023-09-17T04:20:12.379Z,18.20
2023-09-17T04:22:39.219Z,18.18
2023-09-17T04:25:10.953Z,18.15
2023-09-17T04:27:38.728Z,18.15
2023-09-17T04:30:08.504Z,18.14
2023-09-17T04:32:39.644Z,18.12
2023-09-17T04:35:08.636Z,18.10
2023-09-17T04:37:36.417Z,18.10
2023-09-17T04:40:05.635Z,18.08
2023-09-17T04:42:32.891Z,18.06
2023-09-17T04:44:59.505Z,18.06
2023-09-17T04:47:26.322Z,18.05
2023-09-17T04:49:52.987Z,18.06
2023-09-17T04:52:19.691Z,18.04
2023-09-17T04:54:46.541Z,18.03
2023-09-17T04:57:13.118Z,18.23
2023-09-17T04:59:39.715Z,18.74
2023-09-17T05:02:06.468Z,19.15
2023-09-17T05:04:33.169Z,19.43
2023-09-17T05:07:00.179Z,19.69
2023-09-17T05:09:29.527Z,19.93
2023-09-17T05:11:56.124Z,20.10
2023-09-17T05:14:22.852Z,20.28
2023-09-17T05:16:49.467Z,20.44
2023-09-17T05:19:16.152Z,20.58
2023-09-17T05:21:42.764Z,20.66
2023-09-17T05:24:09.475Z,20.67
2023-09-17T05:26:36.033Z,20.67
2023-09-17T05:29:02.770Z,20.66
2023-09-17T05:31:29.613Z,20.69
2023-09-17T05:33:56.291Z,20.76
2023-09-17T05:36:22.954Z,20.75
2023-09-17T05:38:49.525Z,20.77
2023-09-17T05:41:16.654Z,20.77
2023-09-17T05:43:43.358Z,20.79
2023-09-17T05:46:10.055Z,20.83
2023-09-17T05:48:36.750Z,20.84
2023-09-17T05:51:04.816Z,20.89
2023-09-17T05:53:32.397Z,20.96
2023-09-17T05:55:59.246Z,20.95
2023-09-17T05:58:25.963Z,21.00
2023-09-17T06:00:54.557Z,21.06
2023-09-17T06:03:21.328Z,21.09
2023-09-17T06:05:48.019Z,21.12
2023-09-17T06:08:14.700Z,21.16
2023-09-17T06:10:41.308Z,21.21
2023-09-17T06:13:08.277Z,21.27
2023-09-17T06:15:35.001Z,21.34
2023-09-17T06:18:02.230Z,21.37
2023-09-17T06:20:29.242Z,21.39
2023-09-17T06:22:55.881Z,21.45
2023-09-17T06:25:24.877Z,21.52
2023-09-17T06:27:51.608Z,21.50
2023-09-17T06:30:19.054Z,21.52
2023-09-17T06:32:46.675Z,21.56
2023-09-17T06:35:13.411Z,21.61
2023-09-17T06:37:40.414Z,21.66
2023-09-17T06:40:09.630Z,21.71
2023-09-17T06:42:36.304Z,21.71
2023-09-17T06:45:03.179Z,21.79
2023-09-17T06:47:29.938Z,21.84
2023-09-17T06:49:56.736Z,21.88
2023-09-17T06:52:26.724Z,21.95
2023-09-17T06:54:53.982Z,22.01
2023-09-17T06:57:20.585Z,22.05
2023-09-17T06:59:48.117Z,22.06
2023-09-17T07:02:14.751Z,22.06
2023-09-17T07:04:41.555Z,22.00
2023-09-17T07:07:08.429Z,22.00
2023-09-17T07:09:35.315Z,22.10
2023-09-17T07:12:01.962Z,22.15
2023-09-17T07:14:28.578Z,22.12
2023-09-17T07:16:55.439Z,22.21
2023-09-17T07:19:22.246Z,22.21
2023-09-17T07:21:48.837Z,22.26
2023-09-17T07:24:15.553Z,22.26
2023-09-17T07:26:43.621Z,22.16
2023-09-17T07:29:10.696Z,21.99
2023-09-17T07:31:37.440Z,22.00
2023-09-17T07:34:04.845Z,22.08
2023-09-17T07:36:31.422Z,22.28
2023-09-17T07:38:57.984Z,22.40
2023-09-17T07:41:24.693Z,22.37
2023-09-17T07:43:51.734Z,22.40
2023-09-17T07:46:18.589Z,22.44
2023-09-17T07:48:47.449Z,22.44
2023-09-17T07:51:14.255Z,22.44
2023-09-17T07:53:40.880Z,22.38
2023-09-17T07:56:07.629Z,22.28
2023-09-17T07:58:34.814Z,22.14
2023-09-17T08:01:01.490Z,22.00
2023-09-17T08:03:28.158Z,22.01
2023-09-17T08:05:55.169Z,22.07
2023-09-17T08:08:21.911Z,22.13
2023-09-17T08:10:50.696Z,22.27
2023-09-17T08:13:17.542Z,22.33
2023-09-17T08:15:44.783Z,22.45
2023-09-17T08:18:11.468Z,22.62
2023-09-17T08:20:38.140Z,22.78
2023-09-17T08:23:05.100Z,22.77
2023-09-17T08:25:32.135Z,22.77
2023-09-17T08:28:00.921Z,22.84
2023-09-17T08:30:27.666Z,22.86
2023-09-17T08:32:54.441Z,22.95
2023-09-17T08:35:21.142Z,22.98
2023-09-17T08:37:49.503Z,23.07
2023-09-17T08:40:19.228Z,23.21
2023-09-17T08:42:47.207Z,23.30
2023-09-17T08:45:14.908Z,23.46
2023-09-17T08:47:41.671Z,23.54
2023-09-17T08:50:10.548Z,23.47
2023-09-17T08:52:45.069Z,23.45
2023-09-17T08:55:12.764Z,23.57
2023-09-17T08:57:43.317Z,23.71
2023-09-17T09:00:12.258Z,23.85
2023-09-17T09:02:49.942Z,24.02
2023-09-17T09:05:18.194Z,24.08
2023-09-17T09:07:48.766Z,24.04
2023-09-17T09:10:16.243Z,24.13
2023-09-17T09:12:44.117Z,24.25
2023-09-17T09:15:11.647Z,24.32
2023-09-17T09:17:41.469Z,24.38
2023-09-17T09:20:12.640Z,24.35
2023-09-17T09:22:39.828Z,24.27
2023-09-17T09:25:10.041Z,24.35
2023-09-17T09:27:38.739Z,24.48
2023-09-17T09:30:10.948Z,24.65
2023-09-17T09:32:38.811Z,24.82
2023-09-17T09:35:06.953Z,24.95
2023-09-17T09:37:35.752Z,25.02
2023-09-17T09:40:03.977Z,25.13
2023-09-17T09:42:31.772Z,25.19
2023-09-17T09:44:58.539Z,25.28
2023-09-17T09:47:25.273Z,25.26
2023-09-17T09:49:52.426Z,25.23
2023-09-17T09:52:22.383Z,25.23
2023-09-17T09:54:49.031Z,25.28
2023-09-17T09:57:20.442Z,25.39
2023-09-17T09:59:49.360Z,25.54
2023-09-17T10:02:17.606Z,25.68
2023-09-17T10:04:47.552Z,25.76
2023-09-17T10:07:16.392Z,25.80
2023-09-17T10:09:43.987Z,25.88
2023-09-17T10:12:10.786Z,25.98
2023-09-17T10:14:38.976Z,26.12
2023-09-17T10:17:09.284Z,26.24
2023-09-17T10:19:36.631Z,26.38
2023-09-17T10:22:09.314Z,26.37
2023-09-17T10:24:39.603Z,26.31
2023-09-17T10:27:10.006Z,26.36
2023-09-17T10:29:38.022Z,26.44
2023-09-17T10:32:05.273Z,26.49
2023-09-17T10:34:34.471Z,26.56
2023-09-17T10:37:04.003Z,26.61
2023-09-17T10:39:32.211Z,26.64
2023-09-17T10:42:02.396Z,26.69
2023-09-17T10:44:30.435Z,26.72
2023-09-17T10:47:00.770Z,26.76
2023-09-17T10:49:28.314Z,26.85
2023-09-17T10:51:56.651Z,26.96
2023-09-17T10:54:23.339Z,27.09
2023-09-17T10:56:50.716Z,27.22
2023-09-17T10:59:19.156Z,27.37
2023-09-17T11:01:47.509Z,27.49
2023-09-17T11:04:22.218Z,27.63
2023-09-17T11:06:51.698Z,27.72
2023-09-17T11:09:19.353Z,27.81
2023-09-17T11:11:46.378Z,27.83
2023-09-17T11:14:15.400Z,27.82
2023-09-17T11:16:42.388Z,27.86
2023-09-17T11:19:22.691Z,27.86
2023-09-17T11:22:01.645Z,27.78
2023-09-17T11:24:28.782Z,27.76
2023-09-17T11:26:58.274Z,27.75
2023-09-17T11:29:42.262Z,27.75
2023-09-17T11:32:09.442Z,27.85
2023-09-17T11:34:39.700Z,27.91
2023-09-17T11:37:07.266Z,27.92
2023-09-17T11:39:37.000Z,27.94
2023-09-17T11:42:07.304Z,28.05
2023-09-17T11:44:36.582Z,28.11
2023-09-17T11:47:05.809Z,28.13
2023-09-17T11:49:33.994Z,28.14
2023-09-17T11:52:01.297Z,28.20
2023-09-17T11:54:41.952Z,28.29
2023-09-17T11:57:09.250Z,28.42
2023-09-17T11:59:39.745Z,28.55
2023-09-17T12:02:09.787Z,28.65
2023-09-17T12:04:37.326Z,28.74
2023-09-17T12:07:09.155Z,28.79
2023-09-17T12:09:47.730Z,28.86
2023-09-17T12:12:14.696Z,28.90
2023-09-17T12:14:41.860Z,28.95
2023-09-17T12:17:08.581Z,29.03
2023-09-17T12:19:35.464Z,29.12
2023-09-17T12:22:02.342Z,29.11
2023-09-17T12:24:36.004Z,29.18
2023-09-17T12:27:12.443Z,29.30
2023-09-17T12:29:39.867Z,29.38
2023-09-17T12:32:07.344Z,29.44
2023-09-17T12:34:38.384Z,29.43
2023-09-17T12:37:08.458Z,29.43
2023-09-17T12:39:35.474Z,29.47
2023-09-17T12:42:02.140Z,29.45
2023-09-17T12:44:29.404Z,29.36
2023-09-17T12:46:56.482Z,29.26
2023-09-17T12:49:24.220Z,29.10
2023-09-17T12:51:54.102Z,29.13
2023-09-17T12:54:22.875Z,29.24
2023-09-17T12:56:51.896Z,29.43
2023-09-17T12:59:39.316Z,29.49
2023-09-17T13:02:07.279Z,29.62
2023-09-17T13:04:34.746Z,29.73
2023-09-17T13:07:03.568Z,29.86
2023-09-17T13:09:32.852Z,30.10
2023-09-17T13:12:01.722Z,30.34
2023-09-17T13:14:30.776Z,30.52
2023-09-17T13:16:57.667Z,30.52
2023-09-17T13:19:24.641Z,30.41
2023-09-17T13:21:51.420Z,30.30
2023-09-17T13:24:19.429Z,30.15
2023-09-17T13:26:46.125Z,29.97
2023-09-17T13:29:13.089Z,29.84
2023-09-17T13:31:43.168Z,29.86
2023-09-17T13:34:11.529Z,30.00
2023-09-17T13:36:38.894Z,30.27
2023-09-17T13:39:05.706Z,30.51
2023-09-17T13:41:32.468Z,30.53
2023-09-17T13:43:59.502Z,30.46
2023-09-17T13:46:26.326Z,30.77
2023-09-17T13:48:53.083Z,31.15
2023-09-17T13:51:19.942Z,31.72
2023-09-17T13:53:46.553Z,32.35
2023-09-17T13:56:13.232Z,32.94
2023-09-17T13:58:39.913Z,33.44
2023-09-17T14:01:07.257Z,33.84
2023-09-17T14:03:34.320Z,34.21
2023-09-17T14:06:00.928Z,34.62
2023-09-17T14:08:27.633Z,35.10
2023-09-17T14:10:54.314Z,35.37
2023-09-17T14:13:20.967Z,35.66
2023-09-17T14:15:47.676Z,35.20
2023-09-17T14:18:17.763Z,34.54
2023-09-17T14:20:44.352Z,33.93
2023-09-17T14:23:11.134Z,33.54
2023-09-17T14:25:37.785Z,33.40
2023-09-17T14:28:04.674Z,33.88
2023-09-17T14:30:31.355Z,34.13
2023-09-17T14:32:59.176Z,34.04
2023-09-17T14:35:27.595Z,33.68
2023-09-17T14:37:55.576Z,33.38
2023-09-17T14:40:22.319Z,33.02
2023-09-17T14:42:49.095Z,32.75
2023-09-17T14:45:15.738Z,32.47
2023-09-17T14:47:43.743Z,32.24
2023-09-17T14:50:12.455Z,32.05
2023-09-17T14:52:39.452Z,31.74
2023-09-17T14:55:07.076Z,31.55
2023-09-17T14:57:37.089Z,31.43
2023-09-17T15:00:06.121Z,31.34
2023-09-17T15:02:33.615Z,31.26
2023-09-17T15:05:01.433Z,31.22
2023-09-17T15:07:28.248Z,31.23
2023-09-17T15:09:54.945Z,31.27
2023-09-17T15:12:21.609Z,31.28
2023-09-17T15:14:48.410Z,31.31
2023-09-17T15:17:15.150Z,31.38
2023-09-17T15:19:42.077Z,31.48
2023-09-17T15:22:08.786Z,31.55
2023-09-17T15:24:35.417Z,31.58
2023-09-17T15:27:02.031Z,31.62
2023-09-17T15:29:30.194Z,31.65
2023-09-17T15:31:57.240Z,31.70
2023-09-17T15:34:24.479Z,31.69
2023-09-17T15:36:52.324Z,31.82
2023-09-17T15:39:19.890Z,32.14
2023-09-17T15:41:46.511Z,32.42
2023-09-17T15:44:16.012Z,32.63
2023-09-17T15:46:43.530Z,32.80
2023-09-17T15:49:10.877Z,33.03
2023-09-17T15:51:37.815Z,33.17
2023-09-17T15:54:05.178Z,33.64
2023-09-17T15:56:32.403Z,34.27
2023-09-17T15:58:59.096Z,34.90
2023-09-17T16:01:25.892Z,35.35
2023-09-17T16:03:52.824Z,35.53
2023-09-17T16:06:24.478Z,35.64
2023-09-17T16:08:54.768Z,35.32
2023-09-17T16:11:21.603Z,35.22
2023-09-17T16:13:48.433Z,35.12
2023-09-17T16:16:15.245Z,34.83
2023-09-17T16:18:41.902Z,34.55
2023-09-17T16:21:09.026Z,34.30
2023-09-17T16:23:35.961Z,33.96
2023-09-17T16:26:03.482Z,33.48
2023-09-17T16:28:30.299Z,32.99
2023-09-17T16:30:56.948Z,32.48
2023-09-17T16:33:23.807Z,32.03
2023-09-17T16:35:51.288Z,31.63
2023-09-17T16:38:18.073Z,31.26
2023-09-17T16:40:46.092Z,30.85
2023-09-17T16:43:15.746Z,30.42
2023-09-17T16:45:44.218Z,30.08
2023-09-17T16:48:12.048Z,29.78
2023-09-17T16:50:39.906Z,29.49
2023-09-17T16:53:06.849Z,29.18
2023-09-17T16:55:35.209Z,28.91
2023-09-17T16:58:01.965Z,28.66
2023-09-17T17:00:28.567Z,28.45
2023-09-17T17:02:55.398Z,28.26
2023-09-17T17:05:22.462Z,28.10
2023-09-17T17:07:49.124Z,27.98
2023-09-17T17:10:16.153Z,27.83
2023-09-17T17:12:42.748Z,27.69
2023-09-17T17:15:09.581Z,27.51
2023-09-17T17:17:36.374Z,27.32
2023-09-17T17:20:04.999Z,27.11
2023-09-17T17:22:43.136Z,26.90
2023-09-17T17:25:10.540Z,26.78
2023-09-17T17:27:37.244Z,26.63
2023-09-17T17:30:05.794Z,26.49
2023-09-17T17:32:33.109Z,26.37
2023-09-17T17:35:00.018Z,26.27
2023-09-17T17:37:27.084Z,26.12
2023-09-17T17:39:58.398Z,25.97
2023-09-17T17:42:25.679Z,25.84
2023-09-17T17:44:52.341Z,25.72
2023-09-17T17:47:19.547Z,25.62
2023-09-17T17:49:47.823Z,25.49
2023-09-17T17:52:14.454Z,25.40
2023-09-17T17:54:41.021Z,25.29
2023-09-17T17:57:08.802Z,25.21
2023-09-17T17:59:35.447Z,25.10
2023-09-17T18:02:02.166Z,24.99
2023-09-17T18:04:28.805Z,24.92
2023-09-17T18:06:57.623Z,24.84
2023-09-17T18:09:25.600Z,24.79
2023-09-17T18:11:52.189Z,24.74
2023-09-17T18:14:18.796Z,24.69
2023-09-17T18:16:45.670Z,24.65
2023-09-17T18:19:12.532Z,24.61
2023-09-17T18:21:39.106Z,24.56
2023-09-17T18:24:06.114Z,24.51
2023-09-17T18:26:33.159Z,24.48
2023-09-17T18:28:59.859Z,24.43
2023-09-17T18:31:26.556Z,24.40
2023-09-17T18:33:53.354Z,24.38
2023-09-17T18:36:20.912Z,24.34
2023-09-17T18:38:49.470Z,24.27
2023-09-17T18:41:16.182Z,24.20
2023-09-17T18:43:42.771Z,24.16
2023-09-17T18:46:09.399Z,24.11
2023-09-17T18:48:36.076Z,24.07
2023-09-17T18:51:02.762Z,24.04
2023-09-17T18:53:29.413Z,24.00
2023-09-17T18:55:56.091Z,23.96
2023-09-17T18:58:23.214Z,23.92
2023-09-17T19:00:49.951Z,23.86
2023-09-17T19:03:16.808Z,23.83
2023-09-17T19:05:45.348Z,23.79
2023-09-17T19:08:11.982Z,23.75
2023-09-17T19:10:38.922Z,23.70
2023-09-17T19:13:05.599Z,23.68
2023-09-17T19:15:32.371Z,23.64
2023-09-17T19:17:58.985Z,23.59
2023-09-17T19:20:26.061Z,23.56
2023-09-17T19:22:52.695Z,23.53
2023-09-17T19:25:19.437Z,23.49
2023-09-17T19:27:46.093Z,23.45
2023-09-17T19:30:13.403Z,23.43
2023-09-17T19:32:40.108Z,23.37
2023-09-17T19:35:07.089Z,23.33
2023-09-17T19:37:33.761Z,23.27
2023-09-17T19:40:00.348Z,23.23
2023-09-17T19:42:29.100Z,23.21
2023-09-17T19:44:56.440Z,23.15
2023-09-17T19:47:23.123Z,23.12
2023-09-17T19:49:49.747Z,23.07
2023-09-17T19:52:16.565Z,23.05
2023-09-17T19:54:45.230Z,23.00
2023-09-17T19:57:12.019Z,22.97
2023-09-17T19:59:38.653Z,22.93
2023-09-17T20:02:05.404Z,22.91
2023-09-17T20:04:32.598Z,22.88
2023-09-17T20:07:01.204Z,22.83
2023-09-17T20:09:28.428Z,22.78
2023-09-17T20:11:56.515Z,22.77
2023-09-17T20:14:23.490Z,22.78
2023-09-17T20:16:50.223Z,22.75
2023-09-17T20:19:16.908Z,22.75
2023-09-17T20:21:43.564Z,22.72
2023-09-17T20:24:10.190Z,22.70
2023-09-17T20:26:37.957Z,22.66
2023-09-17T20:29:05.580Z,22.65
2023-09-17T20:31:32.510Z,22.61
2023-09-17T20:33:59.198Z,22.58
2023-09-17T20:36:25.835Z,22.55
2023-09-17T20:38:52.869Z,22.51
2023-09-17T20:41:19.738Z,22.49
2023-09-17T20:43:46.527Z,22.47
2023-09-17T20:46:13.293Z,22.44
2023-09-17T20:48:39.925Z,22.41
2023-09-17T20:51:06.594Z,22.40
2023-09-17T20:53:33.449Z,22.38
2023-09-17T20:56:00.376Z,22.37
2023-09-17T20:58:27.110Z,22.37
2023-09-17T21:00:53.877Z,22.39
2023-09-17T21:03:20.711Z,22.38
2023-09-17T21:05:48.731Z,22.37
2023-09-17T21:08:15.992Z,22.37
2023-09-17T21:10:43.911Z,22.37
2023-09-17T21:13:12.015Z,22.34
2023-09-17T21:15:39.307Z,22.33
2023-09-17T21:18:07.079Z,22.28
2023-09-17T21:20:34.068Z,22.27
2023-09-17T21:23:01.439Z,22.26
2023-09-17T21:25:29.030Z,22.26
2023-09-17T21:27:55.755Z,22.26
2023-09-17T21:30:23.873Z,22.24
2023-09-17T21:32:50.575Z,22.22
2023-09-17T21:35:17.749Z,22.20
2023-09-17T21:37:44.609Z,22.19
2023-09-17T21:40:12.240Z,22.19
2023-09-17T21:42:39.071Z,22.18
2023-09-17T21:45:06.389Z,22.18
2023-09-17T21:47:33.373Z,22.16
2023-09-17T21:50:01.386Z,22.14
2023-09-17T21:52:31.467Z,22.12
2023-09-17T21:54:58.914Z,22.12
2023-09-17T21:57:25.922Z,22.12
2023-09-17T21:59:53.380Z,22.11
2023-09-17T22:02:21.013Z,22.09
2023-09-17T22:04:47.855Z,22.12
2023-09-17T22:07:14.678Z,22.13
2023-09-17T22:09:41.349Z,22.11
2023-09-17T22:12:08.854Z,22.11
2023-09-17T22:14:38.207Z,22.10
2023-09-17T22:17:04.888Z,22.06
2023-09-17T22:19:31.585Z,22.03
2023-09-17T22:21:58.275Z,22.00
2023-09-17T22:24:25.170Z,21.95
2023-09-17T22:26:52.127Z,21.90
2023-09-17T22:29:18.939Z,21.83
2023-09-17T22:31:45.872Z,21.83
2023-09-17T22:34:12.740Z,21.82
2023-09-17T22:36:40.542Z,21.78
2023-09-17T22:39:07.428Z,21.76
2023-09-17T22:41:34.497Z,21.71
2023-09-17T22:44:16.150Z,21.68
2023-09-17T22:46:47.703Z,21.64
2023-09-17T22:49:14.404Z,21.64
2023-09-17T22:51:41.169Z,21.63
2023-09-17T22:54:07.880Z,21.66
2023-09-17T22:56:34.646Z,21.65
2023-09-17T22:59:01.359Z,21.66
2023-09-17T23:01:28.004Z,21.66
2023-09-17T23:03:54.651Z,21.65
2023-09-17T23:06:23.267Z,21.62
2023-09-17T23:08:50.089Z,21.58
2023-09-17T23:11:16.907Z,21.53
2023-09-17T23:13:43.604Z,21.49
2023-09-17T23:16:10.302Z,21.45
2023-09-17T23:18:36.923Z,21.40
2023-09-17T23:21:05.519Z,21.39
2023-09-17T23:23:32.637Z,21.39
2023-09-17T23:26:02.524Z,21.42
2023-09-17T23:28:34.518Z,21.47
2023-09-17T23:31:07.750Z,21.51
2023-09-17T23:33:34.567Z,21.57
2023-09-17T23:36:01.878Z,21.61
2023-09-17T23:38:29.051Z,21.65
2023-09-17T23:40:56.557Z,21.65
2023-09-17T23:43:23.828Z,21.52
2023-09-17T23:45:50.489Z,21.43
2023-09-17T23:48:17.109Z,21.35
2023-09-17T23:50:44.127Z,21.30
2023-09-17T23:53:10.916Z,21.25
2023-09-17T23:55:37.593Z,21.24
2023-09-17T23:58:04.476Z,21.18
